createdAt,value
2023-04-14T00:01:19.151Z,7.40
2023-04-14T00:04:22.250Z,7.40
2023-04-14T00:07:25.655Z,7.40
2023-04-14T00:10:28.945Z,7.40
2023-04-14T00:13:35.614Z,7.40
2023-04-14T00:16:39.949Z,7.40
2023-04-14T00:19:42.919Z,7.40
2023-04-14T00:22:46.009Z,7.40
2023-04-14T00:25:50.842Z,7.40
2023-04-14T00:28:53.926Z,7.40
2023-04-14T00:31:57.330Z,7.40
2023-04-14T00:35:00.535Z,7.40
2023-04-14T00:38:03.726Z,7.40
2023-04-14T00:41:07.425Z,7.40
2023-04-14T00:44:10.822Z,7.40
2023-04-14T00:47:14.024Z,7.30
2023-04-14T00:50:21.308Z,7.30
2023-04-14T00:53:24.498Z,7.30
2023-04-14T00:56:27.486Z,7.40
2023-04-14T00:59:30.990Z,7.30
2023-04-14T01:02:34.744Z,7.30
2023-04-14T01:05:37.992Z,7.30
2023-04-14T01:08:41.790Z,7.30
2023-04-14T01:11:53.384Z,7.20
2023-04-14T01:15:29.550Z,7.20
2023-04-14T01:18:59.919Z,7.20
2023-04-14T01:22:09.933Z,7.30
2023-04-14T01:25:28.277Z,7.30
2023-04-14T01:29:04.154Z,7.30
2023-04-14T01:32:11.126Z,7.30
2023-04-14T01:35:43.098Z,7.40
2023-04-14T01:38:49.670Z,7.40
2023-04-14T01:41:58.586Z,7.40
2023-04-14T01:45:10.175Z,7.40
2023-04-14T01:48:13.984Z,7.40
2023-04-14T01:51:21.791Z,7.50
2023-04-14T01:54:25.489Z,7.50
2023-04-14T01:57:29.819Z,7.50
2023-04-14T02:00:35.464Z,7.50
2023-04-14T02:03:40.692Z,7.50
2023-04-14T02:06:44.922Z,7.50
2023-04-14T02:09:49.554Z,7.50
2023-04-14T02:12:57.554Z,7.50
2023-04-14T02:16:02.288Z,7.50
2023-04-14T02:19:06.506Z,7.50
2023-04-14T02:22:09.996Z,7.50
2023-04-14T02:25:13.199Z,7.50
2023-04-14T02:28:20.380Z,7.50
2023-04-14T02:31:26.162Z,7.50
2023-04-14T02:34:34.712Z,7.50
2023-04-14T02:37:42.141Z,7.50
2023-04-14T02:40:46.159Z,7.50
2023-04-14T02:43:55.490Z,7.50
2023-04-14T02:47:11.280Z,7.50
2023-04-14T02:50:16.933Z,7.50
2023-04-14T02:53:24.322Z,7.50
2023-04-14T02:56:28.440Z,7.50
2023-04-14T02:59:33.067Z,7.50
2023-04-14T03:02:38.768Z,7.50
2023-04-14T03:05:44.161Z,7.50
2023-04-14T03:08:48.690Z,7.50
2023-04-14T03:11:54.235Z,7.50
2023-04-14T03:15:07.982Z,7.50
2023-04-14T03:18:13.127Z,7.50
2023-04-14T03:21:18.970Z,7.50
2023-04-14T03:24:27.901Z,7.50
2023-04-14T03:27:32.840Z,7.50
2023-04-14T03:30:39.814Z,7.50
2023-04-14T03:33:46.386Z,7.50
2023-04-14T03:36:53.062Z,7.40
2023-04-14T03:40:02.491Z,7.40
2023-04-14T03:43:10.298Z,7.40
2023-04-14T03:46:13.728Z,7.40
2023-04-14T03:49:19.863Z,7.30
2023-04-14T03:52:24.490Z,7.30
2023-04-14T03:55:30.238Z,7.30
2023-04-14T03:58:34.789Z,7.30
2023-04-14T04:01:40.864Z,7.30
2023-04-14T04:04:46.147Z,7.30
2023-04-14T04:07:51.346Z,7.30
2023-04-14T04:10:56.766Z,7.30
2023-04-14T04:14:02.606Z,7.30
2023-04-14T04:17:09.078Z,7.30
2023-04-14T04:20:16.579Z,7.30
2023-04-14T04:23:23.454Z,7.30
2023-04-14T04:26:26.648Z,7.30
2023-04-14T04:29:30.247Z,7.30
2023-04-14T04:32:33.273Z,7.30
2023-04-14T04:35:37.866Z,7.30
2023-04-14T04:38:41.065Z,7.30
2023-04-14T04:41:44.151Z,7.20
2023-04-14T04:44:47.447Z,7.30
2023-04-14T04:47:50.663Z,7.30
2023-04-14T04:50:54.040Z,7.20
2023-04-14T04:53:57.332Z,7.20
2023-04-14T04:57:00.430Z,7.20
2023-04-14T05:00:04.129Z,7.20
2023-04-14T05:03:07.481Z,7.20
2023-04-14T05:06:10.720Z,7.20
2023-04-14T05:09:16.169Z,7.10
2023-04-14T05:12:19.357Z,7.10
2023-04-14T05:15:22.459Z,7.10
2023-04-14T05:18:25.438Z,7.10
2023-04-14T05:21:28.736Z,7.10
2023-04-14T05:24:32.134Z,7.10
2023-04-14T05:27:35.212Z,7.10
2023-04-14T05:30:38.312Z,7.10
2023-04-14T05:33:41.602Z,7.00
2023-04-14T05:36:44.804Z,7.00
2023-04-14T05:39:48.613Z,7.00
2023-04-14T05:42:51.700Z,6.90
2023-04-14T05:45:54.794Z,6.90
2023-04-14T05:48:58.969Z,6.80
2023-04-14T05:52:02.715Z,6.80
2023-04-14T05:55:06.018Z,6.80
2023-04-14T05:58:09.109Z,6.80
2023-04-14T06:01:12.300Z,6.80
2023-04-14T06:04:16.073Z,6.80
2023-04-14T06:07:19.194Z,6.80
2023-04-14T06:10:22.487Z,6.80
2023-04-14T06:13:26.009Z,6.80
2023-04-14T06:16:29.339Z,6.80
2023-04-14T06:19:32.573Z,6.80
2023-04-14T06:22:36.197Z,6.80
2023-04-14T06:25:39.285Z,6.80
2023-04-14T06:28:43.823Z,6.80
2023-04-14T06:31:47.628Z,6.80
2023-04-14T06:34:53.227Z,6.80
2023-04-14T06:37:56.956Z,6.80
2023-04-14T06:41:00.669Z,6.80
2023-04-14T06:44:04.064Z,6.80
2023-04-14T06:47:07.465Z,6.70
2023-04-14T06:50:10.964Z,6.70
2023-04-14T06:53:14.774Z,6.70
2023-04-14T06:56:17.561Z,6.70
2023-04-14T06:59:21.870Z,6.70
2023-04-14T07:02:24.899Z,6.70
2023-04-14T07:05:27.948Z,6.70
2023-04-14T07:08:33.191Z,6.60
2023-04-14T07:11:36.174Z,6.60
2023-04-14T07:14:39.268Z,6.60
2023-04-14T07:17:42.486Z,6.70
2023-04-14T07:20:45.759Z,6.70
2023-04-14T07:23:49.160Z,6.70
2023-04-14T07:26:52.449Z,6.70
2023-04-14T07:29:55.750Z,6.60
2023-04-14T07:32:59.362Z,6.60
2023-04-14T07:36:08.486Z,6.60
2023-04-14T07:39:11.877Z,6.60
2023-04-14T07:42:14.769Z,6.50
2023-04-14T07:45:18.673Z,6.40
2023-04-14T07:48:22.283Z,6.40
2023-04-14T07:51:25.577Z,6.40
2023-04-14T07:54:28.765Z,6.40
2023-04-14T07:57:35.236Z,6.40
2023-04-14T08:00:39.450Z,6.40
2023-04-14T08:03:45.148Z,6.40
2023-04-14T08:06:48.703Z,6.40
2023-04-14T08:09:54.666Z,6.40
2023-04-14T08:12:58.173Z,6.50
2023-04-14T08:16:01.505Z,6.50
2023-04-14T08:19:05.354Z,6.50
2023-04-14T08:22:09.071Z,6.50
2023-04-14T08:25:12.781Z,6.50
2023-04-14T08:28:16.176Z,6.60
2023-04-14T08:31:19.071Z,6.60
2023-04-14T08:34:28.535Z,6.60
2023-04-14T08:37:32.312Z,6.70
2023-04-14T08:40:42.672Z,6.80
2023-04-14T08:43:46.690Z,7.00
2023-04-14T08:46:56.017Z,7.00
2023-04-14T08:50:15.808Z,7.00
2023-04-14T08:53:21.352Z,6.80
2023-04-14T08:56:30.790Z,6.70
2023-04-14T08:59:34.090Z,6.70
2023-04-14T09:02:40.427Z,6.70
2023-04-14T09:05:44.678Z,6.60
2023-04-14T09:08:47.680Z,6.60
2023-04-14T09:11:52.193Z,6.60
2023-04-14T09:14:59.170Z,6.60
2023-04-14T09:18:02.618Z,6.70
2023-04-14T09:21:30.183Z,6.80
2023-04-14T09:24:32.420Z,6.80
2023-04-14T09:27:36.440Z,6.80
2023-04-14T09:30:40.472Z,6.90
2023-04-14T09:33:50.881Z,7.00
2023-04-14T09:37:05.753Z,7.10
2023-04-14T09:40:09.364Z,7.10
2023-04-14T09:43:26.477Z,7.20
2023-04-14T09:46:29.406Z,7.20
2023-04-14T09:49:33.591Z,7.30
2023-04-14T09:52:48.864Z,7.20
2023-04-14T09:55:52.569Z,7.50
2023-04-14T09:59:00.336Z,7.60
2023-04-14T10:02:08.865Z,7.60
2023-04-14T10:05:12.106Z,7.60
2023-04-14T10:08:15.373Z,7.70
2023-04-14T10:11:18.372Z,7.60
2023-04-14T10:14:21.551Z,7.70
2023-04-14T10:17:24.499Z,7.60
2023-04-14T10:20:28.147Z,7.70
2023-04-14T10:23:32.161Z,7.80
2023-04-14T10:26:36.790Z,7.80
2023-04-14T10:29:42.454Z,7.70
2023-04-14T10:32:47.553Z,7.60
2023-04-14T10:35:58.041Z,7.50
2023-04-14T10:39:03.475Z,7.60
2023-04-14T10:42:06.789Z,7.70
2023-04-14T10:45:11.819Z,8.00
2023-04-14T10:48:15.009Z,8.20
2023-04-14T10:51:18.922Z,8.20
2023-04-14T10:54:22.115Z,8.20
2023-04-14T10:57:27.253Z,8.20
2023-04-14T11:00:32.294Z,8.10
2023-04-14T11:03:45.310Z,7.90
2023-04-14T11:06:48.610Z,7.80
2023-04-14T11:09:51.596Z,7.60
2023-04-14T11:13:07.646Z,7.60
2023-04-14T11:16:11.145Z,7.50
2023-04-14T11:19:15.933Z,7.50
2023-04-14T11:22:41.855Z,7.60
2023-04-14T11:25:45.971Z,7.70
2023-04-14T11:28:49.053Z,7.80
2023-04-14T11:32:06.062Z,7.70
2023-04-14T11:35:09.576Z,7.80
2023-04-14T11:38:15.652Z,7.90
2023-04-14T11:41:19.342Z,8.00
2023-04-14T11:44:23.214Z,8.30
2023-04-14T11:47:26.358Z,8.50
2023-04-14T11:50:33.142Z,8.80
2023-04-14T11:53:39.998Z,8.90
2023-04-14T11:56:43.092Z,8.80
2023-04-14T11:59:47.204Z,8.80
2023-04-14T12:02:51.630Z,8.50
2023-04-14T12:06:01.968Z,8.40
2023-04-14T12:09:09.485Z,8.40
2023-04-14T12:12:17.149Z,8.50
2023-04-14T12:15:20.480Z,8.60
2023-04-14T12:18:23.988Z,8.80
2023-04-14T12:21:27.480Z,8.90
2023-04-14T12:24:38.250Z,8.90
2023-04-14T12:27:41.648Z,9.00
2023-04-14T12:30:52.731Z,9.10
2023-04-14T12:34:02.199Z,8.90
2023-04-14T12:37:10.070Z,8.90
2023-04-14T12:40:13.261Z,8.70
2023-04-14T12:43:18.811Z,8.70
2023-04-14T12:46:28.515Z,8.60
2023-04-14T12:49:31.951Z,8.90
2023-04-14T12:52:39.705Z,8.80
2023-04-14T12:55:42.950Z,8.70
2023-04-14T12:58:47.514Z,8.70
2023-04-14T13:01:50.554Z,8.60
2023-04-14T13:04:53.455Z,8.50
2023-04-14T13:07:56.754Z,8.30
2023-04-14T13:11:00.157Z,8.30
2023-04-14T13:14:03.145Z,8.20
2023-04-14T13:17:06.775Z,8.20
2023-04-14T13:20:13.410Z,8.10
2023-04-14T13:23:17.065Z,8.00
2023-04-14T13:26:20.013Z,8.00
2023-04-14T13:29:22.904Z,8.00
2023-04-14T13:32:26.243Z,8.00
2023-04-14T13:35:29.715Z,7.80
2023-04-14T13:38:33.732Z,7.80
2023-04-14T13:41:37.216Z,7.70
2023-04-14T13:44:40.509Z,7.80
2023-04-14T13:47:47.703Z,7.70
2023-04-14T13:50:52.520Z,7.70
2023-04-14T13:53:56.738Z,7.70
2023-04-14T13:57:00.034Z,7.70
2023-04-14T14:00:08.036Z,7.80
2023-04-14T14:03:11.133Z,8.10
2023-04-14T14:06:14.832Z,8.50
2023-04-14T14:09:18.131Z,8.70
2023-04-14T14:12:21.528Z,8.60
2023-04-14T14:15:24.208Z,8.60
2023-04-14T14:18:27.911Z,8.50
2023-04-14T14:21:31.830Z,8.40
2023-04-14T14:24:35.223Z,8.30
2023-04-14T14:27:38.213Z,8.30
2023-04-14T14:30:41.502Z,8.10
2023-04-14T14:33:44.700Z,8.10
2023-04-14T14:36:47.993Z,8.20
2023-04-14T14:39:51.087Z,8.10
2023-04-14T14:42:54.082Z,8.00
2023-04-14T14:45:57.173Z,8.10
2023-04-14T14:49:00.567Z,8.10
2023-04-14T14:52:05.193Z,8.30
2023-04-14T14:55:08.918Z,8.40
2023-04-14T14:58:12.452Z,8.50
2023-04-14T15:01:15.440Z,8.60
2023-04-14T15:04:18.779Z,8.60
2023-04-14T15:07:21.863Z,8.60
2023-04-14T15:10:26.241Z,8.60
2023-04-14T15:13:30.488Z,8.50
2023-04-14T15:16:33.846Z,8.30
2023-04-14T15:19:38.241Z,8.30
2023-04-14T15:22:41.125Z,8.30
2023-04-14T15:25:44.118Z,8.30
2023-04-14T15:28:48.346Z,8.30
2023-04-14T15:31:51.594Z,8.50
2023-04-14T15:34:56.091Z,8.50
2023-04-14T15:37:59.057Z,8.50
2023-04-14T15:41:02.156Z,8.40
2023-04-14T15:44:05.336Z,8.30
2023-04-14T15:47:08.428Z,8.30
2023-04-14T15:50:13.051Z,8.20
2023-04-14T15:53:21.773Z,8.10
2023-04-14T15:56:25.170Z,8.00
2023-04-14T15:59:29.497Z,7.90
2023-04-14T16:02:37.868Z,7.90
2023-04-14T16:05:41.200Z,7.90
2023-04-14T16:08:44.661Z,7.80
2023-04-14T16:11:47.996Z,7.70
2023-04-14T16:14:54.784Z,7.70
2023-04-14T16:17:58.315Z,7.70
2023-04-14T16:21:01.895Z,7.70
2023-04-14T16:24:04.978Z,7.60
2023-04-14T16:27:08.481Z,7.50
2023-04-14T16:30:20.376Z,7.60
2023-04-14T16:33:24.207Z,7.60
2023-04-14T16:36:27.686Z,7.60
2023-04-14T16:39:31.609Z,7.60
2023-04-14T16:42:36.945Z,7.60
2023-04-14T16:45:40.005Z,7.60
2023-04-14T16:48:43.334Z,7.50
2023-04-14T16:51:47.350Z,7.50
2023-04-14T16:54:50.424Z,7.50
2023-04-14T16:57:53.510Z,7.40
2023-04-14T17:00:56.829Z,7.40
2023-04-14T17:04:00.625Z,7.40
2023-04-14T17:07:04.405Z,7.40
2023-04-14T17:10:08.217Z,7.30
2023-04-14T17:13:11.403Z,7.30
2023-04-14T17:16:14.560Z,7.20
2023-04-14T17:19:18.414Z,7.10
2023-04-14T17:22:23.927Z,7.10
2023-04-14T17:25:27.960Z,7.10
2023-04-14T17:28:31.367Z,7.00
2023-04-14T17:31:35.431Z,7.00
2023-04-14T17:34:38.872Z,7.00
2023-04-14T17:37:42.685Z,6.90
2023-04-14T17:40:46.695Z,6.90
2023-04-14T17:43:50.703Z,6.80
2023-04-14T17:46:54.616Z,6.80
2023-04-14T17:49:58.346Z,6.70
2023-04-14T17:53:05.405Z,6.70
2023-04-14T17:56:09.929Z,6.70
2023-04-14T17:59:13.736Z,6.70
2023-04-14T18:02:18.041Z,6.70
2023-04-14T18:05:22.277Z,6.70
2023-04-14T18:08:27.013Z,6.60
2023-04-14T18:11:31.096Z,6.60
2023-04-14T18:14:34.520Z,6.60
2023-04-14T18:17:38.887Z,6.60
2023-04-14T18:20:46.434Z,6.60
2023-04-14T18:26:58.141Z,6.60
2023-04-14T18:30:05.021Z,6.60
2023-04-14T18:33:09.443Z,6.60
2023-04-14T18:36:13.356Z,6.60
2023-04-14T18:39:17.468Z,6.60
2023-04-14T18:42:21.276Z,6.60
2023-04-14T18:45:25.390Z,6.50
2023-04-14T18:48:29.610Z,6.50
2023-04-14T18:51:36.810Z,6.50
2023-04-14T18:54:40.707Z,6.50
2023-04-14T18:57:44.841Z,6.50
2023-04-14T19:00:48.734Z,6.50
2023-04-14T19:03:55.329Z,6.40
2023-04-14T19:06:59.222Z,6.40
2023-04-14T19:10:05.798Z,6.30
2023-04-14T19:13:13.893Z,6.30
2023-04-14T19:16:17.837Z,6.30
2023-04-14T19:19:21.826Z,6.20
2023-04-14T19:22:26.038Z,6.20
2023-04-14T19:25:31.171Z,6.30
2023-04-14T19:28:35.799Z,6.30
2023-04-14T19:31:40.263Z,6.30
2023-04-14T19:34:46.284Z,6.20
2023-04-14T19:37:50.812Z,6.20
2023-04-14T19:40:55.439Z,6.20
2023-04-14T19:43:59.340Z,6.20
2023-04-14T19:47:03.761Z,6.20
2023-04-14T19:50:10.144Z,6.20
2023-04-14T19:53:16.294Z,6.20
2023-04-14T19:56:20.666Z,6.20
2023-04-14T19:59:27.798Z,6.20
2023-04-14T20:02:32.066Z,6.10
2023-04-14T20:05:40.645Z,6.10
2023-04-14T20:08:43.933Z,6.10
2023-04-14T20:11:48.151Z,6.10
2023-04-14T20:14:52.475Z,6.10
2023-04-14T20:17:56.450Z,6.10
2023-04-14T20:21:18.416Z,6.10
2023-04-14T20:24:22.739Z,6.10
2023-04-14T20:27:26.544Z,6.10
2023-04-14T20:30:31.979Z,6.10
2023-04-14T20:33:37.649Z,6.10
2023-04-14T20:36:42.221Z,6.10
2023-04-14T20:39:47.205Z,6.00
2023-04-14T20:42:53.264Z,6.00
2023-04-14T20:45:56.778Z,6.00
2023-04-14T20:49:01.551Z,6.00
2023-04-14T20:52:06.225Z,6.00
2023-04-14T20:55:11.529Z,6.00
2023-04-14T20:58:14.974Z,6.10
2023-04-14T21:01:21.754Z,6.10
2023-04-14T21:04:26.584Z,6.10
2023-04-14T21:07:30.467Z,6.10
2023-04-14T21:10:33.475Z,6.10
2023-04-14T21:15:26.637Z,6.10
2023-04-14T21:17:00.426Z,6.10
2023-04-14T21:20:05.271Z,6.10
2023-04-14T21:23:08.264Z,6.10
2023-04-14T21:26:13.715Z,6.10
2023-04-14T21:29:17.004Z,6.10
2023-04-14T21:32:20.200Z,6.10
2023-04-14T21:35:23.179Z,6.10
2023-04-14T21:38:26.577Z,6.10
2023-04-14T21:41:29.976Z,6.10
2023-04-14T21:44:32.969Z,6.10
2023-04-14T21:47:36.518Z,6.10
2023-04-14T21:50:40.100Z,6.10
2023-04-14T21:53:43.270Z,6.10
2023-04-14T21:56:46.965Z,6.20
2023-04-14T21:59:50.472Z,6.20
2023-04-14T22:02:54.186Z,6.20
2023-04-14T22:05:57.469Z,6.20
2023-04-14T22:09:01.202Z,6.20
2023-04-14T22:12:05.396Z,6.20
2023-04-14T22:15:09.200Z,6.30
2023-04-14T22:18:12.328Z,6.30
2023-04-14T22:21:15.790Z,6.30
2023-04-14T22:24:19.705Z,6.30
2023-04-14T22:27:23.107Z,6.30
2023-04-14T22:30:26.404Z,6.30
2023-04-14T22:33:29.583Z,6.40
2023-04-14T22:36:32.781Z,6.30
2023-04-14T22:39:36.295Z,6.40
2023-04-14T22:42:39.493Z,6.40
2023-04-14T22:45:42.982Z,6.30
2023-04-14T22:48:46.167Z,6.40
2023-04-14T22:51:49.265Z,6.30
2023-04-14T22:54:52.651Z,6.30
2023-04-14T22:57:55.749Z,6.40
2023-04-14T23:00:59.484Z,6.40
2023-04-14T23:04:04.621Z,6.40
2023-04-14T23:07:07.674Z,6.40
2023-04-14T23:10:11.600Z,6.40
2023-04-14T23:13:14.572Z,6.30
2023-04-14T23:16:20.888Z,6.30
2023-04-14T23:19:24.144Z,6.30
2023-04-14T23:22:28.057Z,6.20
2023-04-14T23:25:31.644Z,6.20
2023-04-14T23:28:34.636Z,6.20
2023-04-14T23:31:37.950Z,6.20
2023-04-14T23:34:41.425Z,6.10
2023-04-14T23:37:44.932Z,6.20
2023-04-14T23:40:48.121Z,6.10
2023-04-14T23:43:51.522Z,6.10
2023-04-14T23:46:54.429Z,6.10
2023-04-14T23:49:57.820Z,6.10
2023-04-14T23:53:02.326Z,6.10
2023-04-14T23:56:06.145Z,6.10
2023-04-14T23:59:10.147Z,6.10
